sensor_id;sensor_type;location;lat;lon;timestamp;P1;durP1;ratioP1;P2;durP2;ratioP2
14272;SDS011;7220;49.450;11.052;2023-12-28T00:03:34;2.65;;;1.98;;
14272;SDS011;7220;49.450;11.052;2023-12-28T00:07:35;2.72;;;2.13;;
14272;SDS011;7220;49.450;11.052;2023-12-28T00:11:35;3.63;;;1.90;;
14272;SDS011;7220;49.450;11.052;2023-12-28T00:15:36;4.90;;;2.33;;
14272;SDS011;7220;49.450;11.052;2023-12-28T00:19:36;2.60;;;2.28;;
14272;SDS011;7220;49.450;11.052;2023-12-28T00:23:37;2.17;;;1.77;;
14272;SDS011;7220;49.450;11.052;2023-12-28T00:27:38;1.75;;;1.63;;
14272;SDS011;7220;49.450;11.052;2023-12-28T00:31:38;2.97;;;1.98;;
14272;SDS011;7220;49.450;11.052;2023-12-28T00:35:38;3.38;;;2.55;;
14272;SDS011;7220;49.450;11.052;2023-12-28T00:39:39;2.80;;;2.13;;
14272;SDS011;7220;49.450;11.052;2023-12-28T00:43:40;2.28;;;2.08;;
14272;SDS011;7220;49.450;11.052;2023-12-28T00:47:41;2.30;;;2.10;;
14272;SDS011;7220;49.450;11.052;2023-12-28T00:51:43;2.40;;;1.88;;
14272;SDS011;7220;49.450;11.052;2023-12-28T00:55:46;2.38;;;2.17;;
14272;SDS011;7220;49.450;11.052;2023-12-28T00:59:49;2.97;;;2.30;;
14272;SDS011;7220;49.450;11.052;2023-12-28T01:03:49;2.47;;;2.10;;
14272;SDS011;7220;49.450;11.052;2023-12-28T01:07:50;2.65;;;1.92;;
14272;SDS011;7220;49.450;11.052;2023-12-28T01:11:50;2.22;;;2.00;;
14272;SDS011;7220;49.450;11.052;2023-12-28T01:15:50;4.07;;;2.40;;
14272;SDS011;7220;49.450;11.052;2023-12-28T01:19:51;2.00;;;1.90;;
14272;SDS011;7220;49.450;11.052;2023-12-28T01:23:51;2.97;;;2.10;;
14272;SDS011;7220;49.450;11.052;2023-12-28T01:27:52;3.05;;;2.10;;
14272;SDS011;7220;49.450;11.052;2023-12-28T01:31:52;3.17;;;1.77;;
14272;SDS011;7220;49.450;11.052;2023-12-28T01:35:53;1.80;;;1.67;;
14272;SDS011;7220;49.450;11.052;2023-12-28T01:39:53;2.63;;;2.13;;
14272;SDS011;7220;49.450;11.052;2023-12-28T01:43:53;1.98;;;1.70;;
14272;SDS011;7220;49.450;11.052;2023-12-28T01:47:54;1.63;;;1.52;;
14272;SDS011;7220;49.450;11.052;2023-12-28T01:51:58;1.45;;;1.35;;
14272;SDS011;7220;49.450;11.052;2023-12-28T01:56:00;2.13;;;1.30;;
14272;SDS011;7220;49.450;11.052;2023-12-28T02:00:02;1.67;;;1.58;;
14272;SDS011;7220;49.450;11.052;2023-12-28T02:04:03;2.05;;;1.67;;
14272;SDS011;7220;49.450;11.052;2023-12-28T02:08:04;1.83;;;1.73;;
14272;SDS011;7220;49.450;11.052;2023-12-28T02:12:05;2.55;;;1.70;;
14272;SDS011;7220;49.450;11.052;2023-12-28T02:16:49;1.77;;;1.67;;
14272;SDS011;7220;49.450;11.052;2023-12-28T02:20:33;1.90;;;1.70;;
14272;SDS011;7220;49.450;11.052;2023-12-28T02:29:06;2.03;;;1.80;;
14272;SDS011;7220;49.450;11.052;2023-12-28T02:37:38;2.42;;;1.83;;
14272;SDS011;7220;49.450;11.052;2023-12-28T02:41:39;2.45;;;2.17;;
14272;SDS011;7220;49.450;11.052;2023-12-28T02:45:39;2.00;;;1.73;;
14272;SDS011;7220;49.450;11.052;2023-12-28T02:49:40;3.05;;;1.58;;
14272;SDS011;7220;49.450;11.052;2023-12-28T02:53:40;2.38;;;2.17;;
14272;SDS011;7220;49.450;11.052;2023-12-28T02:57:40;2.55;;;1.60;;
14272;SDS011;7220;49.450;11.052;2023-12-28T03:01:41;3.47;;;1.40;;
14272;SDS011;7220;49.450;11.052;2023-12-28T03:05:41;2.25;;;1.75;;
14272;SDS011;7220;49.450;11.052;2023-12-28T03:09:41;1.80;;;1.70;;
14272;SDS011;7220;49.450;11.052;2023-12-28T03:13:42;2.95;;;1.85;;
14272;SDS011;7220;49.450;11.052;2023-12-28T03:17:42;2.20;;;1.67;;
14272;SDS011;7220;49.450;11.052;2023-12-28T03:21:43;4.32;;;2.05;;
14272;SDS011;7220;49.450;11.052;2023-12-28T03:25:43;2.03;;;1.80;;
14272;SDS011;7220;49.450;11.052;2023-12-28T03:29:43;1.65;;;1.55;;
14272;SDS011;7220;49.450;11.052;2023-12-28T03:33:44;2.17;;;1.50;;
14272;SDS011;7220;49.450;11.052;2023-12-28T03:37:44;3.15;;;1.95;;
14272;SDS011;7220;49.450;11.052;2023-12-28T03:41:45;1.95;;;1.85;;
14272;SDS011;7220;49.450;11.052;2023-12-28T03:45:48;2.10;;;1.90;;
14272;SDS011;7220;49.450;11.052;2023-12-28T03:49:49;3.78;;;2.10;;
14272;SDS011;7220;49.450;11.052;2023-12-28T03:53:49;2.03;;;1.90;;
14272;SDS011;7220;49.450;11.052;2023-12-28T03:57:50;2.45;;;1.95;;
14272;SDS011;7220;49.450;11.052;2023-12-28T04:01:51;2.50;;;2.30;;
14272;SDS011;7220;49.450;11.052;2023-12-28T04:05:51;2.05;;;1.83;;
14272;SDS011;7220;49.450;11.052;2023-12-28T04:09:52;1.95;;;1.75;;
14272;SDS011;7220;49.450;11.052;2023-12-28T04:13:52;2.72;;;1.67;;
14272;SDS011;7220;49.450;11.052;2023-12-28T04:17:53;2.10;;;1.90;;
14272;SDS011;7220;49.450;11.052;2023-12-28T04:21:53;2.83;;;1.83;;
14272;SDS011;7220;49.450;11.052;2023-12-28T04:25:56;1.73;;;1.63;;
14272;SDS011;7220;49.450;11.052;2023-12-28T04:29:58;2.17;;;1.63;;
14272;SDS011;7220;49.450;11.052;2023-12-28T04:33:58;1.65;;;1.55;;
14272;SDS011;7220;49.450;11.052;2023-12-28T04:37:59;1.92;;;1.60;;
14272;SDS011;7220;49.450;11.052;2023-12-28T04:41:59;2.72;;;1.65;;
14272;SDS011;7220;49.450;11.052;2023-12-28T04:46:06;2.78;;;2.05;;
14272;SDS011;7220;49.450;11.052;2023-12-28T04:50:06;2.00;;;1.88;;
14272;SDS011;7220;49.450;11.052;2023-12-28T04:54:07;2.45;;;1.95;;
14272;SDS011;7220;49.450;11.052;2023-12-28T04:58:08;3.35;;;2.00;;
14272;SDS011;7220;49.450;11.052;2023-12-28T05:02:08;1.73;;;1.63;;
14272;SDS011;7220;49.450;11.052;2023-12-28T05:06:08;1.73;;;1.50;;
14272;SDS011;7220;49.450;11.052;2023-12-28T05:10:09;2.17;;;1.80;;
14272;SDS011;7220;49.450;11.052;2023-12-28T05:14:09;1.50;;;1.40;;
14272;SDS011;7220;49.450;11.052;2023-12-28T05:18:10;1.70;;;1.60;;
14272;SDS011;7220;49.450;11.052;2023-12-28T05:22:10;1.75;;;1.65;;
14272;SDS011;7220;49.450;11.052;2023-12-28T05:26:11;1.67;;;1.58;;
14272;SDS011;7220;49.450;11.052;2023-12-28T05:30:12;2.15;;;1.60;;
14272;SDS011;7220;49.450;11.052;2023-12-28T05:34:12;2.97;;;2.05;;
14272;SDS011;7220;49.450;11.052;2023-12-28T05:38:13;1.23;;;1.13;;
14272;SDS011;7220;49.450;11.052;2023-12-28T05:42:14;1.77;;;1.67;;
14272;SDS011;7220;49.450;11.052;2023-12-28T05:46:14;4.35;;;2.05;;
14272;SDS011;7220;49.450;11.052;2023-12-28T05:50:15;2.70;;;1.95;;
14272;SDS011;7220;49.450;11.052;2023-12-28T05:54:15;2.03;;;1.75;;
14272;SDS011;7220;49.450;11.052;2023-12-28T05:58:16;2.00;;;1.77;;
14272;SDS011;7220;49.450;11.052;2023-12-28T06:02:16;2.03;;;1.60;;
14272;SDS011;7220;49.450;11.052;2023-12-28T06:06:16;2.17;;;1.92;;
14272;SDS011;7220;49.450;11.052;2023-12-28T06:10:17;1.70;;;1.60;;
14272;SDS011;7220;49.450;11.052;2023-12-28T06:14:17;2.97;;;1.95;;
14272;SDS011;7220;49.450;11.052;2023-12-28T06:18:17;2.50;;;1.80;;
14272;SDS011;7220;49.450;11.052;2023-12-28T06:22:18;1.75;;;1.40;;
14272;SDS011;7220;49.450;11.052;2023-12-28T06:26:18;2.40;;;1.85;;
14272;SDS011;7220;49.450;11.052;2023-12-28T06:30:18;1.80;;;1.70;;
14272;SDS011;7220;49.450;11.052;2023-12-28T06:34:19;2.08;;;1.88;;
14272;SDS011;7220;49.450;11.052;2023-12-28T06:38:20;4.22;;;1.95;;
14272;SDS011;7220;49.450;11.052;2023-12-28T06:42:20;2.22;;;1.67;;
14272;SDS011;7220;49.450;11.052;2023-12-28T06:46:21;2.40;;;2.08;;
14272;SDS011;7220;49.450;11.052;2023-12-28T06:50:21;1.98;;;1.77;;
14272;SDS011;7220;49.450;11.052;2023-12-28T06:54:21;1.90;;;1.70;;
14272;SDS011;7220;49.450;11.052;2023-12-28T06:58:22;2.25;;;1.65;;
14272;SDS011;7220;49.450;11.052;2023-12-28T07:02:22;2.05;;;1.80;;
14272;SDS011;7220;49.450;11.052;2023-12-28T07:06:23;3.10;;;1.92;;
14272;SDS011;7220;49.450;11.052;2023-12-28T07:10:23;1.83;;;1.52;;
14272;SDS011;7220;49.450;11.052;2023-12-28T07:14:23;2.35;;;1.80;;
14272;SDS011;7220;49.450;11.052;2023-12-28T07:18:24;2.92;;;1.85;;
14272;SDS011;7220;49.450;11.052;2023-12-28T07:22:24;3.80;;;1.98;;
14272;SDS011;7220;49.450;11.052;2023-12-28T07:26:25;1.98;;;1.75;;
14272;SDS011;7220;49.450;11.052;2023-12-28T07:30:25;2.22;;;1.90;;
14272;SDS011;7220;49.450;11.052;2023-12-28T07:34:25;3.58;;;1.90;;
14272;SDS011;7220;49.450;11.052;2023-12-28T07:38:26;1.70;;;1.60;;
14272;SDS011;7220;49.450;11.052;2023-12-28T07:42:26;4.07;;;2.03;;
14272;SDS011;7220;49.450;11.052;2023-12-28T07:46:27;2.53;;;1.52;;
14272;SDS011;7220;49.450;11.052;2023-12-28T07:50:27;2.67;;;1.83;;
14272;SDS011;7220;49.450;11.052;2023-12-28T07:54:27;4.15;;;2.20;;
14272;SDS011;7220;49.450;11.052;2023-12-28T07:58:28;2.75;;;1.77;;
14272;SDS011;7220;49.450;11.052;2023-12-28T08:02:28;1.75;;;1.60;;
14272;SDS011;7220;49.450;11.052;2023-12-28T08:06:29;2.33;;;1.77;;
14272;SDS011;7220;49.450;11.052;2023-12-28T08:10:32;3.00;;;1.70;;
14272;SDS011;7220;49.450;11.052;2023-12-28T08:14:33;3.00;;;1.88;;
14272;SDS011;7220;49.450;11.052;2023-12-28T08:18:33;2.20;;;1.83;;
14272;SDS011;7220;49.450;11.052;2023-12-28T08:22:33;2.00;;;1.80;;
14272;SDS011;7220;49.450;11.052;2023-12-28T08:26:34;3.05;;;2.10;;
14272;SDS011;7220;49.450;11.052;2023-12-28T08:30:34;2.20;;;1.70;;
14272;SDS011;7220;49.450;11.052;2023-12-28T08:34:34;2.63;;;2.20;;
14272;SDS011;7220;49.450;11.052;2023-12-28T08:38:35;1.73;;;1.63;;
14272;SDS011;7220;49.450;11.052;2023-12-28T08:42:35;2.28;;;1.80;;
14272;SDS011;7220;49.450;11.052;2023-12-28T08:46:36;2.03;;;1.80;;
14272;SDS011;7220;49.450;11.052;2023-12-28T08:50:36;1.83;;;1.70;;
14272;SDS011;7220;49.450;11.052;2023-12-28T08:54:36;4.95;;;2.10;;
14272;SDS011;7220;49.450;11.052;2023-12-28T08:58:37;2.97;;;1.92;;
14272;SDS011;7220;49.450;11.052;2023-12-28T09:02:37;2.33;;;2.03;;
14272;SDS011;7220;49.450;11.052;2023-12-28T09:06:37;3.35;;;2.00;;
14272;SDS011;7220;49.450;11.052;2023-12-28T09:10:38;2.38;;;1.70;;
14272;SDS011;7220;49.450;11.052;2023-12-28T09:14:38;2.85;;;2.05;;
14272;SDS011;7220;49.450;11.052;2023-12-28T09:18:39;2.40;;;1.67;;
14272;SDS011;7220;49.450;11.052;2023-12-28T09:22:40;2.72;;;2.08;;
14272;SDS011;7220;49.450;11.052;2023-12-28T09:26:40;2.97;;;1.73;;
14272;SDS011;7220;49.450;11.052;2023-12-28T09:30:41;2.65;;;1.92;;
14272;SDS011;7220;49.450;11.052;2023-12-28T09:34:41;2.50;;;2.25;;
14272;SDS011;7220;49.450;11.052;2023-12-28T09:38:42;1.77;;;1.63;;
14272;SDS011;7220;49.450;11.052;2023-12-28T09:42:51;2.92;;;2.03;;
14272;SDS011;7220;49.450;11.052;2023-12-28T09:47:01;4.18;;;2.08;;
14272;SDS011;7220;49.450;11.052;2023-12-28T09:51:02;3.88;;;1.98;;
14272;SDS011;7220;49.450;11.052;2023-12-28T09:55:02;1.88;;;1.67;;
14272;SDS011;7220;49.450;11.052;2023-12-28T09:59:04;3.15;;;1.83;;
14272;SDS011;7220;49.450;11.052;2023-12-28T10:03:06;3.05;;;2.30;;
14272;SDS011;7220;49.450;11.052;2023-12-28T10:07:06;2.30;;;2.00;;
14272;SDS011;7220;49.450;11.052;2023-12-28T10:11:06;2.30;;;1.77;;
14272;SDS011;7220;49.450;11.052;2023-12-28T10:15:07;2.58;;;1.70;;
14272;SDS011;7220;49.450;11.052;2023-12-28T10:19:08;2.58;;;2.22;;
14272;SDS011;7220;49.450;11.052;2023-12-28T10:23:08;2.33;;;1.90;;
14272;SDS011;7220;49.450;11.052;2023-12-28T10:27:10;5.15;;;2.30;;
14272;SDS011;7220;49.450;11.052;2023-12-28T10:31:12;2.60;;;1.75;;
14272;SDS011;7220;49.450;11.052;2023-12-28T10:35:12;2.08;;;1.80;;
14272;SDS011;7220;49.450;11.052;2023-12-28T10:39:13;4.03;;;2.40;;
14272;SDS011;7220;49.450;11.052;2023-12-28T10:43:19;2.78;;;2.40;;
14272;SDS011;7220;49.450;11.052;2023-12-28T10:47:22;2.30;;;1.98;;
14272;SDS011;7220;49.450;11.052;2023-12-28T10:51:26;3.80;;;2.70;;
14272;SDS011;7220;49.450;11.052;2023-12-28T10:55:31;4.30;;;2.40;;
14272;SDS011;7220;49.450;11.052;2023-12-28T11:04:24;2.22;;;1.63;;
14272;SDS011;7220;49.450;11.052;2023-12-28T11:08:32;4.28;;;2.25;;
14272;SDS011;7220;49.450;11.052;2023-12-28T11:12:35;2.38;;;2.00;;
14272;SDS011;7220;49.450;11.052;2023-12-28T11:16:38;2.38;;;2.03;;
14272;SDS011;7220;49.450;11.052;2023-12-28T11:20:41;2.78;;;1.98;;
14272;SDS011;7220;49.450;11.052;2023-12-28T11:24:43;1.88;;;1.77;;
14272;SDS011;7220;49.450;11.052;2023-12-28T11:28:44;4.15;;;1.70;;
14272;SDS011;7220;49.450;11.052;2023-12-28T11:32:45;2.90;;;1.83;;
14272;SDS011;7220;49.450;11.052;2023-12-28T11:36:52;4.20;;;2.40;;
14272;SDS011;7220;49.450;11.052;2023-12-28T11:40:57;4.13;;;2.15;;
14272;SDS011;7220;49.450;11.052;2023-12-28T11:45:05;2.25;;;1.85;;
14272;SDS011;7220;49.450;11.052;2023-12-28T11:49:06;2.03;;;1.70;;
14272;SDS011;7220;49.450;11.052;2023-12-28T11:53:07;2.38;;;1.75;;
14272;SDS011;7220;49.450;11.052;2023-12-28T11:57:08;3.42;;;1.90;;
14272;SDS011;7220;49.450;11.052;2023-12-28T12:01:08;1.98;;;1.60;;
14272;SDS011;7220;49.450;11.052;2023-12-28T12:05:08;2.97;;;2.05;;
14272;SDS011;7220;49.450;11.052;2023-12-28T12:09:10;2.55;;;2.15;;
14272;SDS011;7220;49.450;11.052;2023-12-28T12:13:11;2.50;;;1.92;;
14272;SDS011;7220;49.450;11.052;2023-12-28T12:17:11;3.58;;;2.63;;
14272;SDS011;7220;49.450;11.052;2023-12-28T12:21:12;1.95;;;1.70;;
14272;SDS011;7220;49.450;11.052;2023-12-28T12:25:12;2.28;;;1.83;;
14272;SDS011;7220;49.450;11.052;2023-12-28T12:29:13;3.65;;;2.25;;
14272;SDS011;7220;49.450;11.052;2023-12-28T12:33:16;2.42;;;2.22;;
14272;SDS011;7220;49.450;11.052;2023-12-28T12:37:17;2.50;;;1.85;;
14272;SDS011;7220;49.450;11.052;2023-12-28T12:41:17;2.28;;;2.05;;
14272;SDS011;7220;49.450;11.052;2023-12-28T12:45:18;2.03;;;1.88;;
14272;SDS011;7220;49.450;11.052;2023-12-28T12:49:20;2.72;;;2.10;;
14272;SDS011;7220;49.450;11.052;2023-12-28T12:53:22;2.25;;;2.05;;
14272;SDS011;7220;49.450;11.052;2023-12-28T12:57:22;2.53;;;2.20;;
14272;SDS011;7220;49.450;11.052;2023-12-28T13:01:25;2.92;;;2.20;;
14272;SDS011;7220;49.450;11.052;2023-12-28T13:05:26;2.50;;;2.30;;
14272;SDS011;7220;49.450;11.052;2023-12-28T13:09:26;4.45;;;2.42;;
14272;SDS011;7220;49.450;11.052;2023-12-28T13:13:26;2.42;;;1.90;;
14272;SDS011;7220;49.450;11.052;2023-12-28T13:17:27;3.05;;;2.75;;
14272;SDS011;7220;49.450;11.052;2023-12-28T13:21:27;2.53;;;1.70;;
14272;SDS011;7220;49.450;11.052;2023-12-28T13:25:27;2.28;;;1.80;;
14272;SDS011;7220;49.450;11.052;2023-12-28T13:29:28;3.95;;;2.17;;
14272;SDS011;7220;49.450;11.052;2023-12-28T13:33:29;3.05;;;2.10;;
14272;SDS011;7220;49.450;11.052;2023-12-28T13:37:30;2.63;;;2.30;;
14272;SDS011;7220;49.450;11.052;2023-12-28T13:41:30;2.75;;;2.03;;
14272;SDS011;7220;49.450;11.052;2023-12-28T13:45:31;4.70;;;2.70;;
14272;SDS011;7220;49.450;11.052;2023-12-28T13:49:31;2.38;;;2.10;;
14272;SDS011;7220;49.450;11.052;2023-12-28T13:53:32;2.80;;;2.05;;
14272;SDS011;7220;49.450;11.052;2023-12-28T13:57:35;2.65;;;2.28;;
14272;SDS011;7220;49.450;11.052;2023-12-28T14:01:35;4.57;;;2.10;;
14272;SDS011;7220;49.450;11.052;2023-12-28T14:05:36;3.30;;;1.98;;
14272;SDS011;7220;49.450;11.052;2023-12-28T14:09:37;1.80;;;1.70;;
14272;SDS011;7220;49.450;11.052;2023-12-28T14:13:37;3.50;;;2.08;;
14272;SDS011;7220;49.450;11.052;2023-12-28T14:17:38;2.38;;;1.85;;
14272;SDS011;7220;49.450;11.052;2023-12-28T14:21:39;4.55;;;2.00;;
14272;SDS011;7220;49.450;11.052;2023-12-28T14:25:40;3.45;;;2.03;;
14272;SDS011;7220;49.450;11.052;2023-12-28T14:29:41;2.10;;;1.92;;
14272;SDS011;7220;49.450;11.052;2023-12-28T14:33:41;2.97;;;2.13;;
14272;SDS011;7220;49.450;11.052;2023-12-28T14:37:43;3.10;;;2.30;;
14272;SDS011;7220;49.450;11.052;2023-12-28T14:41:44;2.97;;;2.05;;
14272;SDS011;7220;49.450;11.052;2023-12-28T14:45:45;3.15;;;1.90;;
14272;SDS011;7220;49.450;11.052;2023-12-28T14:49:47;2.83;;;2.50;;
14272;SDS011;7220;49.450;11.052;2023-12-28T14:53:47;4.43;;;2.38;;
14272;SDS011;7220;49.450;11.052;2023-12-28T14:57:48;3.35;;;2.60;;
14272;SDS011;7220;49.450;11.052;2023-12-28T15:01:49;2.78;;;2.00;;
14272;SDS011;7220;49.450;11.052;2023-12-28T15:05:50;2.90;;;2.08;;
14272;SDS011;7220;49.450;11.052;2023-12-28T15:09:51;4.10;;;2.80;;
14272;SDS011;7220;49.450;11.052;2023-12-28T15:13:56;6.32;;;2.70;;
14272;SDS011;7220;49.450;11.052;2023-12-28T15:17:56;2.22;;;2.03;;
14272;SDS011;7220;49.450;11.052;2023-12-28T15:21:57;2.65;;;2.42;;
14272;SDS011;7220;49.450;11.052;2023-12-28T15:25:57;2.40;;;2.10;;
14272;SDS011;7220;49.450;11.052;2023-12-28T15:29:58;3.88;;;2.75;;
14272;SDS011;7220;49.450;11.052;2023-12-28T15:33:58;2.58;;;2.22;;
14272;SDS011;7220;49.450;11.052;2023-12-28T15:37:59;1.95;;;1.85;;
14272;SDS011;7220;49.450;11.052;2023-12-28T15:41:59;2.40;;;2.20;;
14272;SDS011;7220;49.450;11.052;2023-12-28T15:45:59;4.20;;;2.80;;
14272;SDS011;7220;49.450;11.052;2023-12-28T15:50:01;4.35;;;2.95;;
14272;SDS011;7220;49.450;11.052;2023-12-28T15:54:02;4.10;;;2.80;;
14272;SDS011;7220;49.450;11.052;2023-12-28T15:58:02;3.10;;;2.80;;
14272;SDS011;7220;49.450;11.052;2023-12-28T16:02:03;5.53;;;3.00;;
14272;SDS011;7220;49.450;11.052;2023-12-28T16:06:04;3.13;;;2.72;;
14272;SDS011;7220;49.450;11.052;2023-12-28T16:10:04;3.58;;;2.42;;
14272;SDS011;7220;49.450;11.052;2023-12-28T16:14:06;9.02;;;5.82;;
14272;SDS011;7220;49.450;11.052;2023-12-28T16:18:07;6.43;;;4.68;;
14272;SDS011;7220;49.450;11.052;2023-12-28T16:22:08;5.55;;;4.15;;
14272;SDS011;7220;49.450;11.052;2023-12-28T16:26:08;5.75;;;3.53;;
14272;SDS011;7220;49.450;11.052;2023-12-28T16:30:10;8.07;;;4.53;;
14272;SDS011;7220;49.450;11.052;2023-12-28T16:34:10;5.07;;;3.33;;
14272;SDS011;7220;49.450;11.052;2023-12-28T16:38:11;3.15;;;2.72;;
14272;SDS011;7220;49.450;11.052;2023-12-28T16:42:11;4.88;;;3.00;;
14272;SDS011;7220;49.450;11.052;2023-12-28T16:46:12;5.47;;;4.05;;
14272;SDS011;7220;49.450;11.052;2023-12-28T16:50:12;4.45;;;2.80;;
14272;SDS011;7220;49.450;11.052;2023-12-28T16:54:13;6.25;;;3.60;;
14272;SDS011;7220;49.450;11.052;2023-12-28T16:58:13;3.25;;;2.92;;
14272;SDS011;7220;49.450;11.052;2023-12-28T17:02:14;3.10;;;2.80;;
14272;SDS011;7220;49.450;11.052;2023-12-28T17:06:14;4.03;;;2.78;;
14272;SDS011;7220;49.450;11.052;2023-12-28T17:10:17;3.97;;;2.80;;
14272;SDS011;7220;49.450;11.052;2023-12-28T17:14:18;3.75;;;2.25;;
14272;SDS011;7220;49.450;11.052;2023-12-28T17:18:19;3.28;;;2.92;;
14272;SDS011;7220;49.450;11.052;2023-12-28T17:22:19;4.22;;;3.13;;
14272;SDS011;7220;49.450;11.052;2023-12-28T17:26:26;2.75;;;2.33;;
14272;SDS011;7220;49.450;11.052;2023-12-28T17:30:32;5.50;;;2.08;;
14272;SDS011;7220;49.450;11.052;2023-12-28T17:34:35;3.28;;;2.75;;
14272;SDS011;7220;49.450;11.052;2023-12-28T17:38:36;4.78;;;2.88;;
14272;SDS011;7220;49.450;11.052;2023-12-28T17:42:38;4.78;;;3.28;;
14272;SDS011;7220;49.450;11.052;2023-12-28T17:46:40;4.35;;;3.10;;
14272;SDS011;7220;49.450;11.052;2023-12-28T17:50:49;5.95;;;2.83;;
14272;SDS011;7220;49.450;11.052;2023-12-28T17:54:50;4.72;;;3.85;;
14272;SDS011;7220;49.450;11.052;2023-12-28T17:58:51;4.85;;;3.60;;
14272;SDS011;7220;49.450;11.052;2023-12-28T18:02:51;7.78;;;3.88;;
14272;SDS011;7220;49.450;11.052;2023-12-28T18:06:51;14.27;;;6.65;;
14272;SDS011;7220;49.450;11.052;2023-12-28T18:10:52;8.23;;;4.25;;
14272;SDS011;7220;49.450;11.052;2023-12-28T18:14:53;4.68;;;3.85;;
14272;SDS011;7220;49.450;11.052;2023-12-28T18:18:53;8.32;;;5.32;;
14272;SDS011;7220;49.450;11.052;2023-12-28T18:22:53;9.38;;;5.18;;
14272;SDS011;7220;49.450;11.052;2023-12-28T18:26:54;5.72;;;4.00;;
14272;SDS011;7220;49.450;11.052;2023-12-28T18:30:54;8.63;;;4.97;;
14272;SDS011;7220;49.450;11.052;2023-12-28T18:34:54;5.30;;;3.65;;
14272;SDS011;7220;49.450;11.052;2023-12-28T18:38:55;7.53;;;4.97;;
14272;SDS011;7220;49.450;11.052;2023-12-28T18:42:55;5.72;;;3.55;;
14272;SDS011;7220;49.450;11.052;2023-12-28T18:46:56;4.45;;;3.40;;
14272;SDS011;7220;49.450;11.052;2023-12-28T18:50:56;5.28;;;3.63;;
14272;SDS011;7220;49.450;11.052;2023-12-28T18:54:56;5.15;;;3.88;;
14272;SDS011;7220;49.450;11.052;2023-12-28T18:58:57;4.72;;;3.78;;
14272;SDS011;7220;49.450;11.052;2023-12-28T19:02:57;3.15;;;2.80;;
14272;SDS011;7220;49.450;11.052;2023-12-28T19:06:57;4.47;;;2.60;;
14272;SDS011;7220;49.450;11.052;2023-12-28T19:10:58;5.05;;;2.97;;
14272;SDS011;7220;49.450;11.052;2023-12-28T19:14:58;2.42;;;2.17;;
14272;SDS011;7220;49.450;11.052;2023-12-28T19:18:59;4.03;;;3.40;;
14272;SDS011;7220;49.450;11.052;2023-12-28T19:22:59;5.20;;;2.75;;
14272;SDS011;7220;49.450;11.052;2023-12-28T19:27:00;2.63;;;2.40;;
14272;SDS011;7220;49.450;11.052;2023-12-28T19:31:00;4.90;;;2.80;;
14272;SDS011;7220;49.450;11.052;2023-12-28T19:35:01;6.07;;;3.20;;
14272;SDS011;7220;49.450;11.052;2023-12-28T19:39:01;2.78;;;2.33;;
14272;SDS011;7220;49.450;11.052;2023-12-28T19:43:01;3.13;;;2.72;;
14272;SDS011;7220;49.450;11.052;2023-12-28T19:47:02;2.63;;;2.42;;
14272;SDS011;7220;49.450;11.052;2023-12-28T19:51:04;3.58;;;2.90;;
14272;SDS011;7220;49.450;11.052;2023-12-28T19:55:04;3.47;;;3.17;;
14272;SDS011;7220;49.450;11.052;2023-12-28T19:59:05;4.15;;;2.75;;
14272;SDS011;7220;49.450;11.052;2023-12-28T20:03:05;5.95;;;3.13;;
14272;SDS011;7220;49.450;11.052;2023-12-28T20:07:06;5.55;;;2.78;;
14272;SDS011;7220;49.450;11.052;2023-12-28T20:11:06;4.40;;;2.63;;
14272;SDS011;7220;49.450;11.052;2023-12-28T20:15:07;5.07;;;3.03;;
14272;SDS011;7220;49.450;11.052;2023-12-28T20:19:09;3.85;;;2.75;;
14272;SDS011;7220;49.450;11.052;2023-12-28T20:23:10;4.47;;;2.47;;
14272;SDS011;7220;49.450;11.052;2023-12-28T20:27:10;3.20;;;2.70;;
14272;SDS011;7220;49.450;11.052;2023-12-28T20:31:11;3.60;;;2.22;;
14272;SDS011;7220;49.450;11.052;2023-12-28T20:35:11;6.03;;;2.83;;
14272;SDS011;7220;49.450;11.052;2023-12-28T20:39:11;3.50;;;2.58;;
14272;SDS011;7220;49.450;11.052;2023-12-28T20:43:12;4.63;;;2.92;;
14272;SDS011;7220;49.450;11.052;2023-12-28T20:47:12;4.88;;;2.70;;
14272;SDS011;7220;49.450;11.052;2023-12-28T20:51:13;3.63;;;2.72;;
14272;SDS011;7220;49.450;11.052;2023-12-28T20:55:13;3.95;;;2.70;;
14272;SDS011;7220;49.450;11.052;2023-12-28T20:59:13;4.38;;;2.67;;
14272;SDS011;7220;49.450;11.052;2023-12-28T21:03:14;3.65;;;3.00;;
14272;SDS011;7220;49.450;11.052;2023-12-28T21:07:14;2.80;;;2.40;;
14272;SDS011;7220;49.450;11.052;2023-12-28T21:11:15;3.13;;;2.72;;
14272;SDS011;7220;49.450;11.052;2023-12-28T21:15:16;3.08;;;2.55;;
14272;SDS011;7220;49.450;11.052;2023-12-28T21:19:17;3.50;;;2.55;;
14272;SDS011;7220;49.450;11.052;2023-12-28T21:23:17;2.50;;;2.22;;
14272;SDS011;7220;49.450;11.052;2023-12-28T21:27:17;3.05;;;2.35;;
14272;SDS011;7220;49.450;11.052;2023-12-28T21:31:18;2.65;;;2.42;;
14272;SDS011;7220;49.450;11.052;2023-12-28T21:35:18;2.72;;;2.30;;
14272;SDS011;7220;49.450;11.052;2023-12-28T21:39:19;4.93;;;2.60;;
14272;SDS011;7220;49.450;11.052;2023-12-28T21:43:19;2.75;;;1.90;;
14272;SDS011;7220;49.450;11.052;2023-12-28T21:47:19;3.50;;;2.33;;
14272;SDS011;7220;49.450;11.052;2023-12-28T21:51:20;2.80;;;2.13;;
14272;SDS011;7220;49.450;11.052;2023-12-28T21:55:20;3.42;;;2.55;;
14272;SDS011;7220;49.450;11.052;2023-12-28T21:59:21;3.10;;;2.47;;
14272;SDS011;7220;49.450;11.052;2023-12-28T22:03:22;4.40;;;2.65;;
14272;SDS011;7220;49.450;11.052;2023-12-28T22:07:23;3.90;;;2.67;;
14272;SDS011;7220;49.450;11.052;2023-12-28T22:11:23;3.60;;;2.55;;
14272;SDS011;7220;49.450;11.052;2023-12-28T22:15:23;4.55;;;2.97;;
14272;SDS011;7220;49.450;11.052;2023-12-28T22:19:24;4.57;;;2.63;;
14272;SDS011;7220;49.450;11.052;2023-12-28T22:23:24;2.67;;;2.33;;
14272;SDS011;7220;49.450;11.052;2023-12-28T22:27:25;3.40;;;2.60;;
14272;SDS011;7220;49.450;11.052;2023-12-28T22:31:25;5.72;;;2.88;;
14272;SDS011;7220;49.450;11.052;2023-12-28T22:35:25;3.78;;;2.63;;
14272;SDS011;7220;49.450;11.052;2023-12-28T22:39:26;2.60;;;2.35;;
14272;SDS011;7220;49.450;11.052;2023-12-28T22:43:27;4.47;;;2.88;;
14272;SDS011;7220;49.450;11.052;2023-12-28T22:47:27;2.33;;;2.00;;
14272;SDS011;7220;49.450;11.052;2023-12-28T22:51:27;3.40;;;2.85;;
14272;SDS011;7220;49.450;11.052;2023-12-28T22:55:28;2.03;;;1.88;;
14272;SDS011;7220;49.450;11.052;2023-12-28T22:59:28;3.92;;;2.33;;
14272;SDS011;7220;49.450;11.052;2023-12-28T23:03:29;3.90;;;2.42;;
14272;SDS011;7220;49.450;11.052;2023-12-28T23:07:29;2.47;;;2.20;;
14272;SDS011;7220;49.450;11.052;2023-12-28T23:11:29;2.33;;;2.13;;
14272;SDS011;7220;49.450;11.052;2023-12-28T23:15:30;2.42;;;1.80;;
14272;SDS011;7220;49.450;11.052;2023-12-28T23:19:30;2.47;;;2.22;;
14272;SDS011;7220;49.450;11.052;2023-12-28T23:23:31;3.15;;;2.30;;
14272;SDS011;7220;49.450;11.052;2023-12-28T23:27:31;3.80;;;2.25;;
14272;SDS011;7220;49.450;11.052;2023-12-28T23:31:32;3.88;;;2.80;;
14272;SDS011;7220;49.450;11.052;2023-12-28T23:35:32;2.20;;;2.00;;
14272;SDS011;7220;49.450;11.052;2023-12-28T23:39:33;3.03;;;2.33;;
14272;SDS011;7220;49.450;11.052;2023-12-28T23:43:33;2.63;;;2.25;;
14272;SDS011;7220;49.450;11.052;2023-12-28T23:47:33;2.35;;;1.98;;
14272;SDS011;7220;49.450;11.052;2023-12-28T23:51:35;3.45;;;2.30;;
14272;SDS011;7220;49.450;11.052;2023-12-28T23:55:36;2.97;;;2.05;;
14272;SDS011;7220;49.450;11.052;2023-12-28T23:59:36;3.00;;;2.08;;
